createdAt,value
2023-02-16T00:01:37.938Z,102136.91
2023-02-16T00:04:29.444Z,102145.09
2023-02-16T00:07:02.020Z,102146.31
2023-02-16T00:09:46.888Z,102144.41
2023-02-16T00:12:40.188Z,102147.72
2023-02-16T00:15:20.825Z,102155.47
2023-02-16T00:17:56.924Z,102152.78
2023-02-16T00:20:32.249Z,102141.81
2023-02-16T00:23:08.055Z,102123.09
2023-02-16T00:25:40.986Z,102149.31
2023-02-16T00:28:19.313Z,102118.97
2023-02-16T00:30:52.039Z,102118.28
2023-02-16T00:33:24.920Z,102141.91
2023-02-16T00:35:57.506Z,102148.25
2023-02-16T00:38:30.127Z,102140.44
2023-02-16T00:41:03.464Z,102134.16
2023-02-16T00:43:36.153Z,102125.53
2023-02-16T00:46:09.639Z,102127.66
2023-02-16T00:48:44.903Z,102126.00
2023-02-16T00:51:25.792Z,102134.03
2023-02-16T00:54:11.090Z,102127.91
2023-02-16T00:56:56.684Z,102138.84
2023-02-16T00:59:29.537Z,102132.47
2023-02-16T01:02:02.106Z,102146.66
2023-02-16T01:04:49.615Z,102142.19
2023-02-16T01:07:41.542Z,102119.91
2023-02-16T01:10:32.895Z,102098.91
2023-02-16T01:13:05.969Z,102135.16
2023-02-16T01:15:39.783Z,102121.16
2023-02-16T01:18:18.797Z,102130.44
2023-02-16T01:20:54.568Z,102107.84
2023-02-16T01:23:30.194Z,102128.63
2023-02-16T01:26:03.459Z,102134.56
2023-02-16T01:28:36.654Z,102127.44
2023-02-16T01:31:30.462Z,102132.22
2023-02-16T01:34:03.099Z,102119.78
2023-02-16T01:36:45.347Z,102117.00
2023-02-16T01:39:20.850Z,102109.69
2023-02-16T01:42:30.770Z,102121.16
2023-02-16T01:45:20.280Z,102100.69
2023-02-16T01:47:58.431Z,102100.53
2023-02-16T01:50:56.234Z,102092.94
2023-02-16T01:53:52.745Z,102086.16
2023-02-16T01:56:50.020Z,102091.31
2023-02-16T02:00:00.914Z,102084.06
2023-02-16T02:03:19.918Z,102081.47
2023-02-16T02:05:52.518Z,102053.84
2023-02-16T02:08:41.937Z,102082.94
2023-02-16T02:11:25.888Z,102084.25
2023-02-16T02:14:09.334Z,102070.13
2023-02-16T02:17:16.593Z,102055.84
2023-02-16T02:20:01.596Z,102071.72
2023-02-16T02:23:33.140Z,102079.00
2023-02-16T02:26:42.837Z,102078.69
2023-02-16T02:29:24.103Z,102081.28
2023-02-16T02:32:05.602Z,102077.47
2023-02-16T02:35:12.535Z,102082.97
2023-02-16T02:38:17.602Z,102077.31
2023-02-16T02:41:50.046Z,102049.78
2023-02-16T02:44:27.417Z,102049.63
2023-02-16T02:47:00.139Z,102036.66
2023-02-16T02:49:32.844Z,102056.44
2023-02-16T02:52:15.591Z,102035.44
2023-02-16T02:55:08.266Z,102024.81
2023-02-16T02:58:08.012Z,102031.53
2023-02-16T03:00:47.805Z,102017.22
2023-02-16T03:03:23.369Z,102027.19
2023-02-16T03:06:24.045Z,102036.47
2023-02-16T03:09:06.649Z,102004.28
2023-02-16T03:12:07.104Z,102003.13
2023-02-16T03:14:54.586Z,102029.34
2023-02-16T03:17:55.404Z,102019.25
2023-02-16T03:20:46.687Z,102026.50
2023-02-16T03:23:37.836Z,102013.06
2023-02-16T03:26:29.625Z,102016.38
2023-02-16T03:29:38.134Z,102015.03
2023-02-16T03:32:10.850Z,101999.63
2023-02-16T03:34:49.873Z,102008.00
2023-02-16T03:37:22.604Z,102015.94
2023-02-16T03:40:28.244Z,102012.19
2023-02-16T03:43:06.757Z,102013.22
2023-02-16T03:46:04.410Z,102031.00
2023-02-16T03:48:40.022Z,101993.47
2023-02-16T03:51:12.601Z,101991.91
2023-02-16T03:53:45.202Z,101981.28
2023-02-16T03:56:18.591Z,101996.00
2023-02-16T03:58:51.197Z,102006.44
2023-02-16T04:01:26.143Z,101984.50
2023-02-16T04:03:58.766Z,101993.56
2023-02-16T04:06:31.461Z,102014.19
2023-02-16T04:09:04.229Z,102016.56
2023-02-16T04:11:55.566Z,102018.13
2023-02-16T04:14:28.172Z,102039.44
2023-02-16T04:17:04.035Z,102014.31
2023-02-16T04:19:36.657Z,102004.91
2023-02-16T04:22:09.206Z,102028.50
2023-02-16T04:24:41.911Z,102034.84
2023-02-16T04:27:14.632Z,102021.44
2023-02-16T04:29:47.332Z,102009.59
2023-02-16T04:32:19.976Z,102016.22
2023-02-16T04:34:52.609Z,102000.66
2023-02-16T04:37:25.381Z,101999.41
2023-02-16T04:39:58.054Z,102009.38
2023-02-16T04:42:30.701Z,102019.28
2023-02-16T04:45:03.382Z,102009.09
2023-02-16T04:47:36.090Z,102024.31
2023-02-16T04:50:10.193Z,102030.69
2023-02-16T04:52:42.744Z,102006.66
2023-02-16T04:55:15.352Z,102013.44
2023-02-16T04:57:47.994Z,102013.13
2023-02-16T05:00:21.263Z,102018.50
2023-02-16T05:02:53.889Z,102007.53
2023-02-16T05:05:26.678Z,102009.00
2023-02-16T05:07:59.307Z,102014.66
2023-02-16T05:10:31.940Z,102032.78
2023-02-16T05:13:23.154Z,102021.72
2023-02-16T05:16:02.790Z,102032.09
2023-02-16T05:18:35.418Z,102005.25
2023-02-16T05:21:26.467Z,102004.84
2023-02-16T05:24:05.676Z,102025.28
2023-02-16T05:26:40.052Z,102004.56
2023-02-16T05:29:12.641Z,102013.91
2023-02-16T05:31:45.976Z,102004.41
2023-02-16T05:34:18.692Z,102006.22
2023-02-16T05:36:51.753Z,101989.63
2023-02-16T05:39:24.473Z,101994.31
2023-02-16T05:41:57.108Z,102000.75
2023-02-16T05:44:29.823Z,102006.34
2023-02-16T05:47:02.633Z,101989.69
2023-02-16T05:49:37.804Z,101980.81
2023-02-16T05:52:10.385Z,101970.53
2023-02-16T05:54:42.962Z,101972.91
2023-02-16T05:57:15.575Z,101996.66
2023-02-16T05:59:48.177Z,102003.00
2023-02-16T06:02:20.842Z,102007.00
2023-02-16T06:04:53.434Z,101996.94
2023-02-16T06:07:28.803Z,101999.38
2023-02-16T06:10:10.509Z,101999.44
2023-02-16T06:12:58.024Z,101976.91
2023-02-16T06:15:30.626Z,101977.78
2023-02-16T06:18:03.423Z,101991.09
2023-02-16T06:20:36.058Z,101994.22
2023-02-16T06:23:11.901Z,102010.13
2023-02-16T06:25:49.626Z,101978.41
2023-02-16T06:28:22.186Z,101995.84
2023-02-16T06:30:54.731Z,101992.72
2023-02-16T06:33:27.482Z,101982.91
2023-02-16T06:36:00.044Z,101999.78
2023-02-16T06:38:32.697Z,101979.75
2023-02-16T06:41:06.294Z,102006.63
2023-02-16T06:43:39.115Z,101989.41
2023-02-16T06:46:11.704Z,102014.81
2023-02-16T06:48:44.511Z,102012.38
2023-02-16T06:51:18.391Z,102016.88
2023-02-16T06:53:50.961Z,102023.84
2023-02-16T06:56:24.284Z,102010.44
2023-02-16T06:58:57.045Z,102017.72
2023-02-16T07:01:30.147Z,102034.41
2023-02-16T07:04:15.108Z,102015.78
2023-02-16T07:06:50.898Z,102051.53
2023-02-16T07:09:23.798Z,102048.19
2023-02-16T07:11:56.451Z,102015.72
2023-02-16T07:14:30.889Z,102034.63
2023-02-16T07:17:18.593Z,102033.88
2023-02-16T07:20:09.604Z,102046.59
2023-02-16T07:22:54.585Z,102048.72
2023-02-16T07:25:27.214Z,102051.94
2023-02-16T07:28:08.653Z,102026.72
2023-02-16T07:30:42.022Z,102029.63
2023-02-16T07:33:15.952Z,102031.06
2023-02-16T07:35:51.829Z,102047.53
2023-02-16T07:38:24.387Z,102033.22
2023-02-16T07:40:58.433Z,102038.47
2023-02-16T07:43:31.086Z,102050.00
2023-02-16T07:46:03.955Z,102051.09
2023-02-16T07:48:36.675Z,102028.66
2023-02-16T07:51:09.304Z,102058.94
2023-02-16T07:53:44.555Z,102065.66
2023-02-16T07:56:33.269Z,102044.63
2023-02-16T07:59:17.037Z,102046.88
2023-02-16T08:01:49.740Z,102043.50
2023-02-16T08:04:22.490Z,102039.84
2023-02-16T08:06:55.151Z,102031.13
2023-02-16T08:09:27.781Z,102038.47
2023-02-16T08:12:15.302Z,102043.97
2023-02-16T08:14:53.595Z,102056.59
2023-02-16T08:17:36.084Z,102041.28
2023-02-16T08:20:09.784Z,102050.78
2023-02-16T08:22:42.419Z,102052.00
2023-02-16T08:25:16.026Z,102038.16
2023-02-16T08:27:48.587Z,102043.50
2023-02-16T08:30:25.035Z,102035.03
2023-02-16T08:33:09.728Z,102030.09
2023-02-16T08:35:54.614Z,102041.94
2023-02-16T08:38:27.247Z,102061.59
2023-02-16T08:40:59.829Z,102057.16
2023-02-16T08:43:32.520Z,102045.31
2023-02-16T08:46:26.387Z,102075.91
2023-02-16T08:49:05.542Z,102077.50
2023-02-16T08:51:52.687Z,102085.88
2023-02-16T08:54:36.313Z,102072.78
2023-02-16T08:57:23.950Z,102067.97
2023-02-16T09:00:17.925Z,102066.66
2023-02-16T09:02:51.201Z,102082.19
2023-02-16T09:05:24.613Z,102077.69
2023-02-16T09:07:58.601Z,102076.50
2023-02-16T09:10:31.454Z,102081.63
2023-02-16T09:13:16.270Z,102092.69
2023-02-16T09:16:08.174Z,102102.06
2023-02-16T09:18:47.288Z,102079.50
2023-02-16T09:21:37.479Z,102087.44
2023-02-16T09:24:16.665Z,102110.47
2023-02-16T09:26:49.937Z,102113.94
2023-02-16T09:29:23.483Z,102085.66
2023-02-16T09:31:56.208Z,102091.81
2023-02-16T09:34:34.961Z,102070.56
2023-02-16T09:37:07.552Z,102100.53
2023-02-16T09:39:52.489Z,102085.31
2023-02-16T09:42:49.377Z,102084.88
2023-02-16T09:46:05.838Z,102095.81
2023-02-16T09:48:45.673Z,102092.69
2023-02-16T09:51:34.300Z,102087.44
2023-02-16T09:58:41.811Z,102100.81
2023-02-16T10:01:58.908Z,102102.84
2023-02-16T10:05:08.574Z,102111.00
2023-02-16T10:08:03.435Z,102095.38
2023-02-16T10:10:42.974Z,102101.03
2023-02-16T10:13:36.864Z,102096.22
2023-02-16T10:16:22.932Z,102087.09
2023-02-16T10:18:59.820Z,102104.53
2023-02-16T10:24:28.064Z,102089.53
2023-02-16T10:27:14.318Z,102093.34
2023-02-16T10:29:46.912Z,102088.97
2023-02-16T10:32:33.982Z,102092.44
2023-02-16T10:35:20.584Z,102094.91
2023-02-16T10:38:26.976Z,102089.38
2023-02-16T10:41:19.877Z,102094.00
2023-02-16T10:44:04.895Z,102089.97
2023-02-16T10:46:52.008Z,102094.34
2023-02-16T10:49:32.720Z,102092.66
2023-02-16T10:52:26.019Z,102079.91
2023-02-16T10:55:11.498Z,102074.09
2023-02-16T10:58:00.650Z,102094.22
2023-02-16T11:01:11.741Z,102111.06
2023-02-16T11:03:49.360Z,102099.25
2023-02-16T11:06:26.879Z,102100.91
2023-02-16T11:09:02.899Z,102108.41
2023-02-16T11:11:42.784Z,102110.44
2023-02-16T11:14:26.869Z,102129.88
2023-02-16T11:17:16.495Z,102125.72
2023-02-16T11:19:57.316Z,102107.75
2023-02-16T11:22:39.720Z,102109.53
2023-02-16T11:25:18.164Z,102113.22
2023-02-16T11:28:02.339Z,102093.06
2023-02-16T11:30:39.888Z,102090.38
2023-02-16T11:33:25.016Z,102094.28
2023-02-16T11:35:57.630Z,102064.38
2023-02-16T11:38:39.074Z,102072.41
2023-02-16T11:41:12.836Z,102058.88
2023-02-16T11:43:45.508Z,102040.56
2023-02-16T11:46:21.728Z,102053.94
2023-02-16T11:49:39.573Z,102065.09
2023-02-16T11:52:29.269Z,102068.22
2023-02-16T11:55:03.124Z,102046.44
2023-02-16T11:57:37.435Z,102059.63
2023-02-16T12:00:22.229Z,102042.97
2023-02-16T12:03:50.629Z,102042.47
2023-02-16T12:07:41.504Z,102038.91
2023-02-16T12:10:42.939Z,102018.44
2023-02-16T12:13:52.937Z,102048.59
2023-02-16T12:17:07.852Z,102042.53
2023-02-16T12:20:05.480Z,102049.50
2023-02-16T12:22:49.386Z,102048.72
2023-02-16T12:25:37.877Z,102033.47
2023-02-16T12:28:25.866Z,102028.38
2023-02-16T12:31:56.755Z,102022.72
2023-02-16T12:34:57.076Z,102014.31
2023-02-16T12:38:03.579Z,102009.28
2023-02-16T12:41:12.279Z,102007.78
2023-02-16T12:43:53.986Z,101988.88
2023-02-16T12:46:43.317Z,101996.53
2023-02-16T12:49:34.626Z,101982.88
2023-02-16T12:52:24.027Z,101971.69
2023-02-16T12:55:22.281Z,101982.09
2023-02-16T12:58:08.578Z,101973.38
2023-02-16T13:00:52.335Z,101971.69
2023-02-16T13:03:39.309Z,101981.19
2023-02-16T13:06:22.749Z,101974.16
2023-02-16T13:09:50.171Z,101979.22
2023-02-16T13:12:44.520Z,101965.16
2023-02-16T13:15:27.090Z,101967.66
2023-02-16T13:18:12.976Z,101963.63
2023-02-16T13:20:59.295Z,101938.34
2023-02-16T13:23:47.725Z,101938.88
2023-02-16T13:26:57.436Z,101944.97
2023-02-16T13:30:01.273Z,101945.63
2023-02-16T13:33:24.764Z,101933.53
2023-02-16T13:36:11.052Z,101918.97
2023-02-16T13:39:01.982Z,101919.78
2023-02-16T13:42:00.340Z,101913.25
2023-02-16T13:44:54.065Z,101907.00
2023-02-16T13:47:36.937Z,101899.06
2023-02-16T13:50:32.848Z,101882.28
2023-02-16T13:53:22.032Z,101896.31
2023-02-16T13:56:36.213Z,101897.88
2023-02-16T13:59:18.586Z,101892.88
2023-02-16T14:01:56.000Z,101878.72
2023-02-16T14:04:31.546Z,101881.19
2023-02-16T14:07:05.072Z,101878.38
2023-02-16T14:09:37.559Z,101879.47
2023-02-16T14:12:14.276Z,101871.22
2023-02-16T14:14:52.913Z,101869.66
2023-02-16T14:21:23.789Z,101856.16
2023-02-16T14:24:43.461Z,101849.75
2023-02-16T14:27:46.321Z,101856.66
2023-02-16T14:30:44.760Z,101848.34
2023-02-16T14:34:12.496Z,101853.97
2023-02-16T14:37:16.267Z,101854.44
2023-02-16T14:40:07.365Z,101850.81
2023-02-16T14:46:38.016Z,101842.63
2023-02-16T14:50:18.825Z,101828.13
2023-02-16T14:53:51.956Z,101829.63
2023-02-16T14:56:54.680Z,101833.91
2023-02-16T15:00:03.464Z,101836.19
2023-02-16T15:03:23.387Z,101804.09
2023-02-16T15:06:04.534Z,101813.88
2023-02-16T15:08:48.983Z,101813.88
2023-02-16T15:12:19.216Z,101824.16
2023-02-16T15:15:01.575Z,101824.94
2023-02-16T15:17:51.306Z,101826.38
2023-02-16T15:20:36.983Z,101826.94
2023-02-16T15:23:29.144Z,101824.81
2023-02-16T15:26:22.023Z,101816.09
2023-02-16T15:28:59.556Z,101818.81
2023-02-16T15:34:40.373Z,101812.44
2023-02-16T15:37:58.757Z,101804.50
2023-02-16T15:40:56.310Z,101817.00
2023-02-16T15:43:31.860Z,101815.06
2023-02-16T15:46:44.452Z,101801.34
2023-02-16T15:49:30.353Z,101784.19
2023-02-16T15:52:09.370Z,101810.19
2023-02-16T15:57:40.629Z,101796.94
2023-02-16T16:00:25.008Z,101781.41
2023-02-16T16:08:49.768Z,101794.66
2023-02-16T16:11:23.349Z,101788.94
2023-02-16T16:13:55.981Z,101790.47
2023-02-16T16:16:29.420Z,101804.25
2023-02-16T16:19:32.479Z,101807.00
2023-02-16T16:22:42.924Z,101818.78
2023-02-16T16:25:34.287Z,101814.78
2023-02-16T16:28:32.305Z,101808.53
2023-02-16T16:31:33.809Z,101817.47
2023-02-16T16:34:39.945Z,101813.84
2023-02-16T16:37:25.370Z,101818.38
2023-02-16T16:40:23.068Z,101815.91
2023-02-16T16:43:05.324Z,101826.19
2023-02-16T16:45:44.874Z,101823.53
2023-02-16T16:48:25.897Z,101828.34
2023-02-16T16:51:13.950Z,101829.31
2023-02-16T16:54:20.673Z,101816.72
2023-02-16T16:56:53.609Z,101812.00
2023-02-16T16:59:35.369Z,101814.50
2023-02-16T17:02:23.355Z,101815.59
2023-02-16T17:05:18.286Z,101831.81
2023-02-16T17:08:00.275Z,101819.19
2023-02-16T17:10:40.220Z,101796.25
2023-02-16T17:13:27.883Z,101807.47
2023-02-16T17:16:23.961Z,101837.56
2023-02-16T17:18:56.565Z,101825.56
2023-02-16T17:21:32.999Z,101806.34
2023-02-16T17:24:15.730Z,101823.34
2023-02-16T17:26:51.525Z,101821.78
2023-02-16T17:29:30.371Z,101800.84
2023-02-16T17:32:09.337Z,101823.03
2023-02-16T17:34:51.119Z,101805.28
2023-02-16T17:37:32.464Z,101801.66
2023-02-16T17:40:27.672Z,101802.56
2023-02-16T17:43:00.368Z,101821.16
2023-02-16T17:45:32.933Z,101819.28
2023-02-16T17:48:05.655Z,101812.72
2023-02-16T17:50:41.442Z,101818.19
2023-02-16T17:53:26.390Z,101783.44
2023-02-16T17:56:01.823Z,101809.47
2023-02-16T17:58:34.501Z,101797.09
2023-02-16T18:01:17.004Z,101788.06
2023-02-16T18:03:53.101Z,101805.31
2023-02-16T18:06:35.095Z,101808.91
2023-02-16T18:09:24.266Z,101805.69
2023-02-16T18:11:59.724Z,101798.66
2023-02-16T18:14:41.583Z,101794.28
2023-02-16T18:17:14.307Z,101788.38
2023-02-16T18:19:46.852Z,101783.19
2023-02-16T18:22:20.445Z,101791.13
2023-02-16T18:24:53.094Z,101812.00
2023-02-16T18:27:27.952Z,101792.06
2023-02-16T18:30:03.193Z,101814.03
2023-02-16T18:32:38.871Z,101802.63
2023-02-16T18:35:20.856Z,101787.34
2023-02-16T18:38:02.672Z,101780.53
2023-02-16T18:41:03.469Z,101790.63
2023-02-16T18:43:51.457Z,101797.38
2023-02-16T18:46:24.238Z,101786.72
2023-02-16T18:49:02.423Z,101801.09
2023-02-16T18:51:42.341Z,101790.47
2023-02-16T18:54:24.187Z,101766.19
2023-02-16T19:00:23.384Z,101784.00
2023-02-16T19:02:56.978Z,101767.28
2023-02-16T19:05:29.767Z,101775.53
2023-02-16T19:11:47.315Z,101796.72
2023-02-16T19:14:20.152Z,101775.69
2023-02-16T19:16:52.808Z,101770.22
2023-02-16T19:19:25.533Z,101774.25
2023-02-16T19:22:03.607Z,101769.44
2023-02-16T19:24:36.323Z,101776.44
2023-02-16T19:27:11.971Z,101754.75
2023-02-16T19:32:47.034Z,101784.50
2023-02-16T19:35:19.762Z,101763.81
2023-02-16T19:37:52.471Z,101754.00
2023-02-16T19:40:31.710Z,101758.94
2023-02-16T19:43:23.551Z,101779.69
2023-02-16T19:49:03.032Z,101779.53
2023-02-16T19:51:47.671Z,101769.19
2023-02-16T19:54:26.470Z,101774.13
2023-02-16T19:57:02.720Z,101773.03
2023-02-16T19:59:40.008Z,101799.09
2023-02-16T20:02:15.653Z,101788.16
2023-02-16T20:05:47.958Z,101784.25
2023-02-16T20:08:36.603Z,101759.81
2023-02-16T20:11:09.391Z,101754.50
2023-02-16T20:13:55.105Z,101774.66
2023-02-16T20:16:33.336Z,101745.81
2023-02-16T20:19:06.739Z,101770.88
2023-02-16T20:24:39.616Z,101785.03
2023-02-16T20:27:28.546Z,101750.47
2023-02-16T20:30:03.807Z,101771.31
2023-02-16T20:32:36.915Z,101755.50
2023-02-16T20:35:13.356Z,101745.16
2023-02-16T20:37:46.005Z,101757.75
2023-02-16T20:40:47.101Z,101785.69
2023-02-16T20:48:19.732Z,101781.03
2023-02-16T20:50:29.327Z,101775.44
2023-02-16T20:53:35.106Z,101751.84
2023-02-16T20:56:30.622Z,101782.19
2023-02-16T20:59:12.625Z,101746.25
2023-02-16T21:01:53.031Z,101760.53
2023-02-16T21:04:25.937Z,101721.16
2023-02-16T21:06:58.569Z,101734.25
2023-02-16T21:09:31.261Z,101724.28
2023-02-16T21:12:19.244Z,101721.91
2023-02-16T21:14:53.245Z,101710.31
2023-02-16T21:31:20.605Z,101740.88
2023-02-16T21:33:55.956Z,101743.44
2023-02-16T21:43:07.649Z,101716.31
2023-02-16T21:45:40.435Z,101738.44
2023-02-16T21:51:50.879Z,101749.44
2023-02-16T21:57:17.940Z,101733.75
2023-02-16T21:59:51.992Z,101743.28
2023-02-16T22:02:47.223Z,101723.03
2023-02-16T22:05:21.018Z,101720.53
2023-02-16T22:09:04.086Z,101722.31
2023-02-16T22:11:37.533Z,101713.28
2023-02-16T22:14:10.830Z,101706.59
2023-02-16T22:16:51.027Z,101704.13
2023-02-16T22:19:57.690Z,101725.16
2023-02-16T22:22:30.486Z,101722.44
2023-02-16T22:25:13.715Z,101714.59
2023-02-16T22:27:58.100Z,101678.34
2023-02-16T22:30:45.997Z,101722.19
2023-02-16T22:33:21.745Z,101696.41
2023-02-16T22:35:54.419Z,101702.53
2023-02-16T22:40:14.536Z,101707.53
2023-02-16T22:42:26.665Z,101711.09
2023-02-16T22:45:29.264Z,101717.16
2023-02-16T22:48:02.001Z,101720.09
2023-02-16T22:50:35.951Z,101708.25
2023-02-16T22:53:20.235Z,101718.84
2023-02-16T22:56:54.750Z,101722.34
2023-02-16T22:59:27.661Z,101712.28
2023-02-16T23:05:16.208Z,101724.75
2023-02-16T23:07:51.835Z,101727.25
2023-02-16T23:13:51.747Z,101719.75
2023-02-16T23:17:10.946Z,101699.06
2023-02-16T23:19:55.642Z,101723.00
2023-02-16T23:22:41.419Z,101739.47
2023-02-16T23:25:33.819Z,101739.28
2023-02-16T23:28:16.512Z,101741.63
2023-02-16T23:30:49.201Z,101744.13
2023-02-16T23:33:22.057Z,101737.69
2023-02-16T23:35:58.852Z,101722.09
2023-02-16T23:38:38.054Z,101722.09
2023-02-16T23:41:25.876Z,101733.06
2023-02-16T23:44:08.753Z,101729.63
2023-02-16T23:46:55.954Z,101728.69
2023-02-16T23:49:40.670Z,101709.69
2023-02-16T23:52:25.351Z,101719.81
2023-02-16T23:54:57.863Z,101701.09
2023-02-16T23:57:32.633Z,101726.78
